sensor_id;sensor_type;location;lat;lon;timestamp;P1;durP1;ratioP1;P2;durP2;ratioP2
73816;SDS011;62146;53.232;-1.304;2022-12-05T00:01:18;16.50;;;8.10;;
73816;SDS011;62146;53.232;-1.304;2022-12-05T00:04:09;15.25;;;7.90;;
73816;SDS011;62146;53.232;-1.304;2022-12-05T00:06:38;12.27;;;6.83;;
73816;SDS011;62146;53.232;-1.304;2022-12-05T00:09:07;13.75;;;7.40;;
73816;SDS011;62146;53.232;-1.304;2022-12-05T00:11:35;14.52;;;7.35;;
73816;SDS011;62146;53.232;-1.304;2022-12-05T00:14:03;13.02;;;6.72;;
73816;SDS011;62146;53.232;-1.304;2022-12-05T00:16:31;11.43;;;6.38;;
73816;SDS011;62146;53.232;-1.304;2022-12-05T00:19:01;12.73;;;6.80;;
73816;SDS011;62146;53.232;-1.304;2022-12-05T00:21:29;13.65;;;7.00;;
73816;SDS011;62146;53.232;-1.304;2022-12-05T00:23:58;11.38;;;6.03;;
73816;SDS011;62146;53.232;-1.304;2022-12-05T00:26:25;13.25;;;6.82;;
73816;SDS011;62146;53.232;-1.304;2022-12-05T00:28:53;13.77;;;6.78;;
73816;SDS011;62146;53.232;-1.304;2022-12-05T00:31:20;12.17;;;6.33;;
73816;SDS011;62146;53.232;-1.304;2022-12-05T00:33:48;13.73;;;6.72;;
73816;SDS011;62146;53.232;-1.304;2022-12-05T00:38:46;12.50;;;5.95;;
73816;SDS011;62146;53.232;-1.304;2022-12-05T00:41:14;14.25;;;6.50;;
73816;SDS011;62146;53.232;-1.304;2022-12-05T00:43:43;13.13;;;6.40;;
73816;SDS011;62146;53.232;-1.304;2022-12-05T00:46:11;11.38;;;6.70;;
73816;SDS011;62146;53.232;-1.304;2022-12-05T00:48:39;12.63;;;6.50;;
73816;SDS011;62146;53.232;-1.304;2022-12-05T00:51:07;12.30;;;6.75;;
73816;SDS011;62146;53.232;-1.304;2022-12-05T00:53:36;11.43;;;5.88;;
73816;SDS011;62146;53.232;-1.304;2022-12-05T00:56:04;16.13;;;7.47;;
73816;SDS011;62146;53.232;-1.304;2022-12-05T00:58:33;13.55;;;6.75;;
73816;SDS011;62146;53.232;-1.304;2022-12-05T01:03:43;12.23;;;6.38;;
73816;SDS011;62146;53.232;-1.304;2022-12-05T01:06:11;13.68;;;7.28;;
73816;SDS011;62146;53.232;-1.304;2022-12-05T01:08:38;14.23;;;6.40;;
73816;SDS011;62146;53.232;-1.304;2022-12-05T01:11:06;14.23;;;7.00;;
73816;SDS011;62146;53.232;-1.304;2022-12-05T01:13:33;12.98;;;6.38;;
73816;SDS011;62146;53.232;-1.304;2022-12-05T01:16:00;12.40;;;6.50;;
73816;SDS011;62146;53.232;-1.304;2022-12-05T01:18:28;12.63;;;6.63;;
73816;SDS011;62146;53.232;-1.304;2022-12-05T01:20:54;12.90;;;6.57;;
73816;SDS011;62146;53.232;-1.304;2022-12-05T01:23:21;12.98;;;6.78;;
73816;SDS011;62146;53.232;-1.304;2022-12-05T01:25:49;14.38;;;6.22;;
73816;SDS011;62146;53.232;-1.304;2022-12-05T01:28:17;12.30;;;6.45;;
73816;SDS011;62146;53.232;-1.304;2022-12-05T01:30:45;15.25;;;6.53;;
73816;SDS011;62146;53.232;-1.304;2022-12-05T01:33:13;15.33;;;6.33;;
73816;SDS011;62146;53.232;-1.304;2022-12-05T01:35:40;11.60;;;6.45;;
73816;SDS011;62146;53.232;-1.304;2022-12-05T01:38:09;11.82;;;6.22;;
73816;SDS011;62146;53.232;-1.304;2022-12-05T01:40:37;10.88;;;6.30;;
73816;SDS011;62146;53.232;-1.304;2022-12-05T01:43:05;9.88;;;6.05;;
73816;SDS011;62146;53.232;-1.304;2022-12-05T01:45:41;12.60;;;6.57;;
73816;SDS011;62146;53.232;-1.304;2022-12-05T01:51:32;10.52;;;5.57;;
73816;SDS011;62146;53.232;-1.304;2022-12-05T01:54:01;11.23;;;6.30;;
73816;SDS011;62146;53.232;-1.304;2022-12-05T01:56:29;12.60;;;6.38;;
73816;SDS011;62146;53.232;-1.304;2022-12-05T01:58:58;11.47;;;5.73;;
73816;SDS011;62146;53.232;-1.304;2022-12-05T02:01:26;9.60;;;5.53;;
73816;SDS011;62146;53.232;-1.304;2022-12-05T02:03:55;10.77;;;5.90;;
73816;SDS011;62146;53.232;-1.304;2022-12-05T02:06:24;14.50;;;6.60;;
73816;SDS011;62146;53.232;-1.304;2022-12-05T02:08:51;11.50;;;5.82;;
73816;SDS011;62146;53.232;-1.304;2022-12-05T02:11:19;13.33;;;6.80;;
73816;SDS011;62146;53.232;-1.304;2022-12-05T02:16:44;13.60;;;6.10;;
73816;SDS011;62146;53.232;-1.304;2022-12-05T02:22:34;10.75;;;5.68;;
73816;SDS011;62146;53.232;-1.304;2022-12-05T02:36:40;13.38;;;5.90;;
73816;SDS011;62146;53.232;-1.304;2022-12-05T02:39:12;14.63;;;6.13;;
73816;SDS011;62146;53.232;-1.304;2022-12-05T02:41:49;11.75;;;5.53;;
73816;SDS011;62146;53.232;-1.304;2022-12-05T02:44:22;11.07;;;5.60;;
73816;SDS011;62146;53.232;-1.304;2022-12-05T02:47:09;11.77;;;5.25;;
73816;SDS011;62146;53.232;-1.304;2022-12-05T02:49:38;11.43;;;5.43;;
73816;SDS011;62146;53.232;-1.304;2022-12-05T02:52:09;11.73;;;5.50;;
73816;SDS011;62146;53.232;-1.304;2022-12-05T02:54:41;13.52;;;5.70;;
73816;SDS011;62146;53.232;-1.304;2022-12-05T02:57:10;11.73;;;5.55;;
73816;SDS011;62146;53.232;-1.304;2022-12-05T02:59:38;11.93;;;5.30;;
73816;SDS011;62146;53.232;-1.304;2022-12-05T03:02:07;10.57;;;5.18;;
73816;SDS011;62146;53.232;-1.304;2022-12-05T03:04:46;11.33;;;5.00;;
73816;SDS011;62146;53.232;-1.304;2022-12-05T03:07:13;11.10;;;5.28;;
73816;SDS011;62146;53.232;-1.304;2022-12-05T03:09:44;11.18;;;5.10;;
73816;SDS011;62146;53.232;-1.304;2022-12-05T03:15:04;12.55;;;5.32;;
73816;SDS011;62146;53.232;-1.304;2022-12-05T03:17:36;10.40;;;4.70;;
73816;SDS011;62146;53.232;-1.304;2022-12-05T03:20:21;9.75;;;4.88;;
73816;SDS011;62146;53.232;-1.304;2022-12-05T03:22:53;11.50;;;4.82;;
73816;SDS011;62146;53.232;-1.304;2022-12-05T03:25:53;10.55;;;4.55;;
73816;SDS011;62146;53.232;-1.304;2022-12-05T03:28:28;11.88;;;4.93;;
73816;SDS011;62146;53.232;-1.304;2022-12-05T03:31:03;9.23;;;4.60;;
73816;SDS011;62146;53.232;-1.304;2022-12-05T03:33:35;11.50;;;4.70;;
73816;SDS011;62146;53.232;-1.304;2022-12-05T03:38:56;9.50;;;4.40;;
73816;SDS011;62146;53.232;-1.304;2022-12-05T03:41:37;8.60;;;4.10;;
73816;SDS011;62146;53.232;-1.304;2022-12-05T03:44:36;14.93;;;5.47;;
73816;SDS011;62146;53.232;-1.304;2022-12-05T03:47:50;8.57;;;3.70;;
73816;SDS011;62146;53.232;-1.304;2022-12-05T03:50:19;9.98;;;3.90;;
73816;SDS011;62146;53.232;-1.304;2022-12-05T03:52:58;11.27;;;4.20;;
73816;SDS011;62146;53.232;-1.304;2022-12-05T03:55:46;9.93;;;4.15;;
73816;SDS011;62146;53.232;-1.304;2022-12-05T03:58:21;8.43;;;3.90;;
73816;SDS011;62146;53.232;-1.304;2022-12-05T04:00:52;11.57;;;3.72;;
73816;SDS011;62146;53.232;-1.304;2022-12-05T04:03:24;9.80;;;3.92;;
73816;SDS011;62146;53.232;-1.304;2022-12-05T04:06:06;7.88;;;3.70;;
73816;SDS011;62146;53.232;-1.304;2022-12-05T04:08:42;9.13;;;3.50;;
73816;SDS011;62146;53.232;-1.304;2022-12-05T04:11:15;9.27;;;3.70;;
73816;SDS011;62146;53.232;-1.304;2022-12-05T04:13:54;7.55;;;3.47;;
73816;SDS011;62146;53.232;-1.304;2022-12-05T04:16:56;8.50;;;3.65;;
73816;SDS011;62146;53.232;-1.304;2022-12-05T04:22:37;10.02;;;3.40;;
73816;SDS011;62146;53.232;-1.304;2022-12-05T04:25:06;10.50;;;3.30;;
73816;SDS011;62146;53.232;-1.304;2022-12-05T04:27:57;7.15;;;3.33;;
73816;SDS011;62146;53.232;-1.304;2022-12-05T04:30:34;8.43;;;2.92;;
73816;SDS011;62146;53.232;-1.304;2022-12-05T04:33:11;7.40;;;3.00;;
73816;SDS011;62146;53.232;-1.304;2022-12-05T04:36:32;9.75;;;3.13;;
73816;SDS011;62146;53.232;-1.304;2022-12-05T04:38:51;8.33;;;2.90;;
73816;SDS011;62146;53.232;-1.304;2022-12-05T04:41:21;6.47;;;3.00;;
73816;SDS011;62146;53.232;-1.304;2022-12-05T04:43:51;9.07;;;3.00;;
73816;SDS011;62146;53.232;-1.304;2022-12-05T04:46:20;6.50;;;2.95;;
73816;SDS011;62146;53.232;-1.304;2022-12-05T04:48:51;6.95;;;2.80;;
73816;SDS011;62146;53.232;-1.304;2022-12-05T04:51:22;7.13;;;3.00;;
73816;SDS011;62146;53.232;-1.304;2022-12-05T04:53:53;7.80;;;2.85;;
73816;SDS011;62146;53.232;-1.304;2022-12-05T04:56:25;7.82;;;3.00;;
73816;SDS011;62146;53.232;-1.304;2022-12-05T04:58:56;6.05;;;2.38;;
73816;SDS011;62146;53.232;-1.304;2022-12-05T05:04:31;6.60;;;2.67;;
73816;SDS011;62146;53.232;-1.304;2022-12-05T05:07:09;8.27;;;2.47;;
73816;SDS011;62146;53.232;-1.304;2022-12-05T05:09:37;7.03;;;2.38;;
73816;SDS011;62146;53.232;-1.304;2022-12-05T05:12:04;6.50;;;2.42;;
73816;SDS011;62146;53.232;-1.304;2022-12-05T05:14:34;6.20;;;2.58;;
73816;SDS011;62146;53.232;-1.304;2022-12-05T05:17:00;8.03;;;2.40;;
73816;SDS011;62146;53.232;-1.304;2022-12-05T05:19:27;7.07;;;2.13;;
73816;SDS011;62146;53.232;-1.304;2022-12-05T05:21:54;7.53;;;2.30;;
73816;SDS011;62146;53.232;-1.304;2022-12-05T05:24:21;6.05;;;2.20;;
73816;SDS011;62146;53.232;-1.304;2022-12-05T05:26:48;7.28;;;2.35;;
73816;SDS011;62146;53.232;-1.304;2022-12-05T05:29:22;6.20;;;2.23;;
73816;SDS011;62146;53.232;-1.304;2022-12-05T05:31:48;6.78;;;2.28;;
73816;SDS011;62146;53.232;-1.304;2022-12-05T05:34:15;6.28;;;2.40;;
73816;SDS011;62146;53.232;-1.304;2022-12-05T05:36:41;5.75;;;2.10;;
73816;SDS011;62146;53.232;-1.304;2022-12-05T05:39:10;7.25;;;2.45;;
73816;SDS011;62146;53.232;-1.304;2022-12-05T05:41:39;5.50;;;2.27;;
73816;SDS011;62146;53.232;-1.304;2022-12-05T05:44:06;6.90;;;2.28;;
73816;SDS011;62146;53.232;-1.304;2022-12-05T05:46:35;5.35;;;2.10;;
73816;SDS011;62146;53.232;-1.304;2022-12-05T05:49:02;6.70;;;2.20;;
73816;SDS011;62146;53.232;-1.304;2022-12-05T05:51:29;7.03;;;1.95;;
73816;SDS011;62146;53.232;-1.304;2022-12-05T05:53:57;5.40;;;2.20;;
73816;SDS011;62146;53.232;-1.304;2022-12-05T05:56:24;4.97;;;2.20;;
73816;SDS011;62146;53.232;-1.304;2022-12-05T05:58:58;5.95;;;1.95;;
73816;SDS011;62146;53.232;-1.304;2022-12-05T06:01:26;6.57;;;2.35;;
73816;SDS011;62146;53.232;-1.304;2022-12-05T06:03:54;7.57;;;2.35;;
73816;SDS011;62146;53.232;-1.304;2022-12-05T06:06:22;6.73;;;2.20;;
73816;SDS011;62146;53.232;-1.304;2022-12-05T06:08:49;8.45;;;2.03;;
73816;SDS011;62146;53.232;-1.304;2022-12-05T06:11:17;5.10;;;1.95;;
73816;SDS011;62146;53.232;-1.304;2022-12-05T06:13:51;6.93;;;2.08;;
73816;SDS011;62146;53.232;-1.304;2022-12-05T06:16:18;6.45;;;2.03;;
73816;SDS011;62146;53.232;-1.304;2022-12-05T06:18:46;5.47;;;1.80;;
73816;SDS011;62146;53.232;-1.304;2022-12-05T06:21:14;5.85;;;2.00;;
73816;SDS011;62146;53.232;-1.304;2022-12-05T06:23:42;6.10;;;2.00;;
73816;SDS011;62146;53.232;-1.304;2022-12-05T06:26:13;5.22;;;1.98;;
73816;SDS011;62146;53.232;-1.304;2022-12-05T06:28:42;8.13;;;2.10;;
73816;SDS011;62146;53.232;-1.304;2022-12-05T06:31:10;5.17;;;1.80;;
73816;SDS011;62146;53.232;-1.304;2022-12-05T06:33:39;6.63;;;2.10;;
73816;SDS011;62146;53.232;-1.304;2022-12-05T06:36:06;6.05;;;1.80;;
73816;SDS011;62146;53.232;-1.304;2022-12-05T06:38:35;5.28;;;1.73;;
73816;SDS011;62146;53.232;-1.304;2022-12-05T06:41:08;4.20;;;1.75;;
73816;SDS011;62146;53.232;-1.304;2022-12-05T06:43:36;5.70;;;1.67;;
73816;SDS011;62146;53.232;-1.304;2022-12-05T06:46:06;5.32;;;1.75;;
73816;SDS011;62146;53.232;-1.304;2022-12-05T06:48:35;4.20;;;1.60;;
73816;SDS011;62146;53.232;-1.304;2022-12-05T06:51:01;6.32;;;1.77;;
73816;SDS011;62146;53.232;-1.304;2022-12-05T06:53:28;5.22;;;1.80;;
73816;SDS011;62146;53.232;-1.304;2022-12-05T06:56:00;6.27;;;1.80;;
73816;SDS011;62146;53.232;-1.304;2022-12-05T06:58:29;4.32;;;1.67;;
73816;SDS011;62146;53.232;-1.304;2022-12-05T07:00:56;6.43;;;1.80;;
73816;SDS011;62146;53.232;-1.304;2022-12-05T07:03:41;7.68;;;1.83;;
73816;SDS011;62146;53.232;-1.304;2022-12-05T07:06:12;6.57;;;2.13;;
73816;SDS011;62146;53.232;-1.304;2022-12-05T07:08:40;5.90;;;2.00;;
73816;SDS011;62146;53.232;-1.304;2022-12-05T07:11:07;5.43;;;2.10;;
73816;SDS011;62146;53.232;-1.304;2022-12-05T07:13:33;7.28;;;2.28;;
73816;SDS011;62146;53.232;-1.304;2022-12-05T07:16:00;6.93;;;2.00;;
73816;SDS011;62146;53.232;-1.304;2022-12-05T07:18:27;5.95;;;2.20;;
73816;SDS011;62146;53.232;-1.304;2022-12-05T07:20:55;6.60;;;1.90;;
73816;SDS011;62146;53.232;-1.304;2022-12-05T07:23:39;6.93;;;2.40;;
73816;SDS011;62146;53.232;-1.304;2022-12-05T07:26:08;5.07;;;1.77;;
73816;SDS011;62146;53.232;-1.304;2022-12-05T07:28:37;8.38;;;2.28;;
73816;SDS011;62146;53.232;-1.304;2022-12-05T07:31:07;7.63;;;2.15;;
73816;SDS011;62146;53.232;-1.304;2022-12-05T07:33:36;5.40;;;2.13;;
73816;SDS011;62146;53.232;-1.304;2022-12-05T07:36:08;5.75;;;1.85;;
73816;SDS011;62146;53.232;-1.304;2022-12-05T07:38:36;5.28;;;2.10;;
73816;SDS011;62146;53.232;-1.304;2022-12-05T07:41:04;7.97;;;2.10;;
73816;SDS011;62146;53.232;-1.304;2022-12-05T07:43:38;7.07;;;2.17;;
73816;SDS011;62146;53.232;-1.304;2022-12-05T07:46:05;6.07;;;1.90;;
73816;SDS011;62146;53.232;-1.304;2022-12-05T07:48:32;7.20;;;1.88;;
73816;SDS011;62146;53.232;-1.304;2022-12-05T07:51:00;6.18;;;1.80;;
73816;SDS011;62146;53.232;-1.304;2022-12-05T07:53:27;5.30;;;1.63;;
73816;SDS011;62146;53.232;-1.304;2022-12-05T07:55:57;6.55;;;1.83;;
73816;SDS011;62146;53.232;-1.304;2022-12-05T07:58:25;7.87;;;2.07;;
73816;SDS011;62146;53.232;-1.304;2022-12-05T08:00:53;5.45;;;2.20;;
73816;SDS011;62146;53.232;-1.304;2022-12-05T08:03:20;6.57;;;2.20;;
73816;SDS011;62146;53.232;-1.304;2022-12-05T08:05:46;7.32;;;2.00;;
73816;SDS011;62146;53.232;-1.304;2022-12-05T08:08:13;5.75;;;2.33;;
73816;SDS011;62146;53.232;-1.304;2022-12-05T08:10:39;5.83;;;2.20;;
73816;SDS011;62146;53.232;-1.304;2022-12-05T08:13:06;7.80;;;2.08;;
73816;SDS011;62146;53.232;-1.304;2022-12-05T08:15:34;8.30;;;2.20;;
73816;SDS011;62146;53.232;-1.304;2022-12-05T08:18:01;5.60;;;2.00;;
73816;SDS011;62146;53.232;-1.304;2022-12-05T08:20:28;6.70;;;2.20;;
73816;SDS011;62146;53.232;-1.304;2022-12-05T08:22:55;6.13;;;2.20;;
73816;SDS011;62146;53.232;-1.304;2022-12-05T08:25:22;6.88;;;2.42;;
73816;SDS011;62146;53.232;-1.304;2022-12-05T08:27:49;8.32;;;2.50;;
73816;SDS011;62146;53.232;-1.304;2022-12-05T08:30:15;6.53;;;2.30;;
73816;SDS011;62146;53.232;-1.304;2022-12-05T08:32:42;8.25;;;2.58;;
73816;SDS011;62146;53.232;-1.304;2022-12-05T08:35:09;7.47;;;2.60;;
73816;SDS011;62146;53.232;-1.304;2022-12-05T08:37:35;5.35;;;2.28;;
73816;SDS011;62146;53.232;-1.304;2022-12-05T08:40:02;7.82;;;2.45;;
73816;SDS011;62146;53.232;-1.304;2022-12-05T08:42:29;6.70;;;2.10;;
73816;SDS011;62146;53.232;-1.304;2022-12-05T08:44:56;6.45;;;2.60;;
73816;SDS011;62146;53.232;-1.304;2022-12-05T08:47:23;6.77;;;2.30;;
73816;SDS011;62146;53.232;-1.304;2022-12-05T08:49:50;8.77;;;2.38;;
73816;SDS011;62146;53.232;-1.304;2022-12-05T08:52:16;6.55;;;2.30;;
73816;SDS011;62146;53.232;-1.304;2022-12-05T08:54:43;6.25;;;2.30;;
73816;SDS011;62146;53.232;-1.304;2022-12-05T08:57:09;6.07;;;2.42;;
73816;SDS011;62146;53.232;-1.304;2022-12-05T08:59:36;6.27;;;2.73;;
73816;SDS011;62146;53.232;-1.304;2022-12-05T09:02:03;6.97;;;2.67;;
73816;SDS011;62146;53.232;-1.304;2022-12-05T09:04:29;6.03;;;2.53;;
73816;SDS011;62146;53.232;-1.304;2022-12-05T09:06:56;7.10;;;2.53;;
73816;SDS011;62146;53.232;-1.304;2022-12-05T09:09:23;5.72;;;2.50;;
73816;SDS011;62146;53.232;-1.304;2022-12-05T09:11:49;7.63;;;2.83;;
73816;SDS011;62146;53.232;-1.304;2022-12-05T09:14:16;8.93;;;2.65;;
73816;SDS011;62146;53.232;-1.304;2022-12-05T09:16:43;8.30;;;2.72;;
73816;SDS011;62146;53.232;-1.304;2022-12-05T09:19:13;8.27;;;2.35;;
73816;SDS011;62146;53.232;-1.304;2022-12-05T09:21:42;7.18;;;2.78;;
73816;SDS011;62146;53.232;-1.304;2022-12-05T09:24:10;8.50;;;2.80;;
73816;SDS011;62146;53.232;-1.304;2022-12-05T09:26:37;8.38;;;2.88;;
73816;SDS011;62146;53.232;-1.304;2022-12-05T09:29:05;7.57;;;2.80;;
73816;SDS011;62146;53.232;-1.304;2022-12-05T09:31:39;7.00;;;2.80;;
73816;SDS011;62146;53.232;-1.304;2022-12-05T09:34:08;6.50;;;2.80;;
73816;SDS011;62146;53.232;-1.304;2022-12-05T09:36:35;6.97;;;2.93;;
73816;SDS011;62146;53.232;-1.304;2022-12-05T09:39:04;7.38;;;2.90;;
73816;SDS011;62146;53.232;-1.304;2022-12-05T09:44:43;8.43;;;2.90;;
73816;SDS011;62146;53.232;-1.304;2022-12-05T09:50:13;7.93;;;2.87;;
73816;SDS011;62146;53.232;-1.304;2022-12-05T10:01:14;8.18;;;3.30;;
73816;SDS011;62146;53.232;-1.304;2022-12-05T10:09:51;9.48;;;3.13;;
73816;SDS011;62146;53.232;-1.304;2022-12-05T10:17:57;7.93;;;3.33;;
73816;SDS011;62146;53.232;-1.304;2022-12-05T10:20:28;11.90;;;3.58;;
73816;SDS011;62146;53.232;-1.304;2022-12-05T10:23:05;10.90;;;3.05;;
73816;SDS011;62146;53.232;-1.304;2022-12-05T10:25:58;8.85;;;3.38;;
73816;SDS011;62146;53.232;-1.304;2022-12-05T10:28:33;7.63;;;3.50;;
73816;SDS011;62146;53.232;-1.304;2022-12-05T10:31:06;10.17;;;3.33;;
73816;SDS011;62146;53.232;-1.304;2022-12-05T10:33:37;11.82;;;3.30;;
73816;SDS011;62146;53.232;-1.304;2022-12-05T10:36:09;8.90;;;3.38;;
73816;SDS011;62146;53.232;-1.304;2022-12-05T10:38:37;10.05;;;3.40;;
73816;SDS011;62146;53.232;-1.304;2022-12-05T10:41:05;11.05;;;3.38;;
73816;SDS011;62146;53.232;-1.304;2022-12-05T10:43:34;10.67;;;3.60;;
73816;SDS011;62146;53.232;-1.304;2022-12-05T10:46:05;11.27;;;3.40;;
73816;SDS011;62146;53.232;-1.304;2022-12-05T10:48:37;8.23;;;3.58;;
73816;SDS011;62146;53.232;-1.304;2022-12-05T10:51:06;9.60;;;3.40;;
73816;SDS011;62146;53.232;-1.304;2022-12-05T10:59:02;10.52;;;3.75;;
73816;SDS011;62146;53.232;-1.304;2022-12-05T11:01:29;7.03;;;3.30;;
73816;SDS011;62146;53.232;-1.304;2022-12-05T11:04:01;9.20;;;3.80;;
73816;SDS011;62146;53.232;-1.304;2022-12-05T11:06:59;9.40;;;3.63;;
73816;SDS011;62146;53.232;-1.304;2022-12-05T11:09:31;11.07;;;4.33;;
73816;SDS011;62146;53.232;-1.304;2022-12-05T11:12:13;11.07;;;3.97;;
73816;SDS011;62146;53.232;-1.304;2022-12-05T11:14:56;8.52;;;3.88;;
73816;SDS011;62146;53.232;-1.304;2022-12-05T11:19:57;7.70;;;3.83;;
73816;SDS011;62146;53.232;-1.304;2022-12-05T11:22:31;9.37;;;4.13;;
73816;SDS011;62146;53.232;-1.304;2022-12-05T11:25:00;9.30;;;4.10;;
73816;SDS011;62146;53.232;-1.304;2022-12-05T11:27:28;10.43;;;3.70;;
73816;SDS011;62146;53.232;-1.304;2022-12-05T11:32:35;8.27;;;3.60;;
73816;SDS011;62146;53.232;-1.304;2022-12-05T11:37:46;10.88;;;3.83;;
73816;SDS011;62146;53.232;-1.304;2022-12-05T11:40:20;9.75;;;3.63;;
73816;SDS011;62146;53.232;-1.304;2022-12-05T12:09:56;11.98;;;4.53;;
73816;SDS011;62146;53.232;-1.304;2022-12-05T12:12:30;11.95;;;5.00;;
73816;SDS011;62146;53.232;-1.304;2022-12-05T12:15:22;9.10;;;4.33;;
73816;SDS011;62146;53.232;-1.304;2022-12-05T12:21:00;14.50;;;5.07;;
73816;SDS011;62146;53.232;-1.304;2022-12-05T12:24:25;15.82;;;5.20;;
73816;SDS011;62146;53.232;-1.304;2022-12-05T12:27:05;9.88;;;4.40;;
73816;SDS011;62146;53.232;-1.304;2022-12-05T12:29:46;12.47;;;4.80;;
73816;SDS011;62146;53.232;-1.304;2022-12-05T12:35:31;10.50;;;4.43;;
73816;SDS011;62146;53.232;-1.304;2022-12-05T12:41:20;10.45;;;4.80;;
73816;SDS011;62146;53.232;-1.304;2022-12-05T12:46:49;12.27;;;4.65;;
73816;SDS011;62146;53.232;-1.304;2022-12-05T12:49:44;12.70;;;5.10;;
73816;SDS011;62146;53.232;-1.304;2022-12-05T13:03:51;11.07;;;4.45;;
73816;SDS011;62146;53.232;-1.304;2022-12-05T13:06:33;10.25;;;4.70;;
73816;SDS011;62146;53.232;-1.304;2022-12-05T13:09:17;12.25;;;4.60;;
73816;SDS011;62146;53.232;-1.304;2022-12-05T13:11:58;10.60;;;4.53;;
73816;SDS011;62146;53.232;-1.304;2022-12-05T13:14:30;10.52;;;4.47;;
73816;SDS011;62146;53.232;-1.304;2022-12-05T13:17:01;9.23;;;4.50;;
73816;SDS011;62146;53.232;-1.304;2022-12-05T13:19:35;9.88;;;4.75;;
73816;SDS011;62146;53.232;-1.304;2022-12-05T13:22:08;12.45;;;5.05;;
73816;SDS011;62146;53.232;-1.304;2022-12-05T13:24:36;10.40;;;4.83;;
73816;SDS011;62146;53.232;-1.304;2022-12-05T13:27:04;11.60;;;4.38;;
73816;SDS011;62146;53.232;-1.304;2022-12-05T13:29:38;11.77;;;4.53;;
73816;SDS011;62146;53.232;-1.304;2022-12-05T13:32:22;13.13;;;5.15;;
73816;SDS011;62146;53.232;-1.304;2022-12-05T13:34:52;9.95;;;4.75;;
73816;SDS011;62146;53.232;-1.304;2022-12-05T13:43:19;11.20;;;4.25;;
73816;SDS011;62146;53.232;-1.304;2022-12-05T13:46:10;14.07;;;4.80;;
73816;SDS011;62146;53.232;-1.304;2022-12-05T13:48:46;11.13;;;4.88;;
73816;SDS011;62146;53.232;-1.304;2022-12-05T13:51:22;13.90;;;4.70;;
73816;SDS011;62146;53.232;-1.304;2022-12-05T13:54:10;13.18;;;4.60;;
73816;SDS011;62146;53.232;-1.304;2022-12-05T14:07:43;12.68;;;4.53;;
73816;SDS011;62146;53.232;-1.304;2022-12-05T14:15:41;10.90;;;4.82;;
73816;SDS011;62146;53.232;-1.304;2022-12-05T14:18:38;10.97;;;4.87;;
73816;SDS011;62146;53.232;-1.304;2022-12-05T14:24:23;11.07;;;4.70;;
73816;SDS011;62146;53.232;-1.304;2022-12-05T14:27:08;9.88;;;4.93;;
73816;SDS011;62146;53.232;-1.304;2022-12-05T14:32:32;11.40;;;4.40;;
73816;SDS011;62146;53.232;-1.304;2022-12-05T14:35:14;9.73;;;4.70;;
73816;SDS011;62146;53.232;-1.304;2022-12-05T14:37:52;11.25;;;4.78;;
73816;SDS011;62146;53.232;-1.304;2022-12-05T14:40:28;9.85;;;4.75;;
73816;SDS011;62146;53.232;-1.304;2022-12-05T14:43:03;9.25;;;4.03;;
73816;SDS011;62146;53.232;-1.304;2022-12-05T14:48:00;11.10;;;4.88;;
73816;SDS011;62146;53.232;-1.304;2022-12-05T14:50:43;10.07;;;4.43;;
73816;SDS011;62146;53.232;-1.304;2022-12-05T14:55:39;8.32;;;4.20;;
73816;SDS011;62146;53.232;-1.304;2022-12-05T14:58:10;8.77;;;4.23;;
73816;SDS011;62146;53.232;-1.304;2022-12-05T15:00:44;8.10;;;4.18;;
73816;SDS011;62146;53.232;-1.304;2022-12-05T15:03:23;11.02;;;4.72;;
73816;SDS011;62146;53.232;-1.304;2022-12-05T15:05:55;9.70;;;4.10;;
73816;SDS011;62146;53.232;-1.304;2022-12-05T15:08:29;9.55;;;4.53;;
73816;SDS011;62146;53.232;-1.304;2022-12-05T15:11:09;8.27;;;4.17;;
73816;SDS011;62146;53.232;-1.304;2022-12-05T15:16:36;10.85;;;3.83;;
73816;SDS011;62146;53.232;-1.304;2022-12-05T15:19:08;8.52;;;4.40;;
73816;SDS011;62146;53.232;-1.304;2022-12-05T15:21:45;11.27;;;4.82;;
73816;SDS011;62146;53.232;-1.304;2022-12-05T15:24:17;10.07;;;4.17;;
73816;SDS011;62146;53.232;-1.304;2022-12-05T15:26:45;10.85;;;4.10;;
73816;SDS011;62146;53.232;-1.304;2022-12-05T15:37:40;8.83;;;3.90;;
73816;SDS011;62146;53.232;-1.304;2022-12-05T15:42:20;8.98;;;4.10;;
73816;SDS011;62146;53.232;-1.304;2022-12-05T15:47:37;11.27;;;5.03;;
73816;SDS011;62146;53.232;-1.304;2022-12-05T15:50:03;9.10;;;4.03;;
73816;SDS011;62146;53.232;-1.304;2022-12-05T15:55:17;11.10;;;4.25;;
73816;SDS011;62146;53.232;-1.304;2022-12-05T15:57:49;10.75;;;4.30;;
73816;SDS011;62146;53.232;-1.304;2022-12-05T16:00:22;9.63;;;4.28;;
73816;SDS011;62146;53.232;-1.304;2022-12-05T16:03:11;10.73;;;4.47;;
73816;SDS011;62146;53.232;-1.304;2022-12-05T16:05:57;9.55;;;4.30;;
73816;SDS011;62146;53.232;-1.304;2022-12-05T16:08:29;13.13;;;4.32;;
73816;SDS011;62146;53.232;-1.304;2022-12-05T16:11:09;9.35;;;3.88;;
73816;SDS011;62146;53.232;-1.304;2022-12-05T16:13:41;9.73;;;4.15;;
73816;SDS011;62146;53.232;-1.304;2022-12-05T16:16:11;11.00;;;4.30;;
73816;SDS011;62146;53.232;-1.304;2022-12-05T16:18:49;9.35;;;4.30;;
73816;SDS011;62146;53.232;-1.304;2022-12-05T16:24:07;9.32;;;4.15;;
73816;SDS011;62146;53.232;-1.304;2022-12-05T16:26:42;9.40;;;4.40;;
73816;SDS011;62146;53.232;-1.304;2022-12-05T16:29:24;12.90;;;4.63;;
73816;SDS011;62146;53.232;-1.304;2022-12-05T16:31:57;9.27;;;4.30;;
73816;SDS011;62146;53.232;-1.304;2022-12-05T16:34:25;11.52;;;4.00;;
73816;SDS011;62146;53.232;-1.304;2022-12-05T16:36:54;8.98;;;3.80;;
73816;SDS011;62146;53.232;-1.304;2022-12-05T16:39:22;9.05;;;4.20;;
73816;SDS011;62146;53.232;-1.304;2022-12-05T16:41:51;8.53;;;4.27;;
73816;SDS011;62146;53.232;-1.304;2022-12-05T16:46:54;8.93;;;4.20;;
73816;SDS011;62146;53.232;-1.304;2022-12-05T16:49:34;9.82;;;3.83;;
73816;SDS011;62146;53.232;-1.304;2022-12-05T16:52:11;8.48;;;3.85;;
73816;SDS011;62146;53.232;-1.304;2022-12-05T16:54:40;7.90;;;3.80;;
73816;SDS011;62146;53.232;-1.304;2022-12-05T16:57:08;9.57;;;4.13;;
73816;SDS011;62146;53.232;-1.304;2022-12-05T16:59:37;9.98;;;3.50;;
73816;SDS011;62146;53.232;-1.304;2022-12-05T17:02:11;10.13;;;3.88;;
73816;SDS011;62146;53.232;-1.304;2022-12-05T17:04:39;8.02;;;3.50;;
73816;SDS011;62146;53.232;-1.304;2022-12-05T17:07:07;9.17;;;3.83;;
73816;SDS011;62146;53.232;-1.304;2022-12-05T17:09:34;10.40;;;3.85;;
73816;SDS011;62146;53.232;-1.304;2022-12-05T17:12:04;9.65;;;3.30;;
73816;SDS011;62146;53.232;-1.304;2022-12-05T17:14:38;8.43;;;3.67;;
73816;SDS011;62146;53.232;-1.304;2022-12-05T17:17:09;10.43;;;3.63;;
73816;SDS011;62146;53.232;-1.304;2022-12-05T17:19:38;7.63;;;3.63;;
73816;SDS011;62146;53.232;-1.304;2022-12-05T17:22:05;8.57;;;3.53;;
73816;SDS011;62146;53.232;-1.304;2022-12-05T17:24:31;7.60;;;3.80;;
73816;SDS011;62146;53.232;-1.304;2022-12-05T17:26:58;9.27;;;3.53;;
73816;SDS011;62146;53.232;-1.304;2022-12-05T17:29:24;8.55;;;3.88;;
73816;SDS011;62146;53.232;-1.304;2022-12-05T17:31:56;7.53;;;3.63;;
73816;SDS011;62146;53.232;-1.304;2022-12-05T17:34:22;8.52;;;3.90;;
73816;SDS011;62146;53.232;-1.304;2022-12-05T17:36:49;8.10;;;3.75;;
73816;SDS011;62146;53.232;-1.304;2022-12-05T17:39:16;9.18;;;3.95;;
73816;SDS011;62146;53.232;-1.304;2022-12-05T17:41:42;6.82;;;3.63;;
73816;SDS011;62146;53.232;-1.304;2022-12-05T17:44:10;7.50;;;3.70;;
73816;SDS011;62146;53.232;-1.304;2022-12-05T17:46:42;6.32;;;3.40;;
73816;SDS011;62146;53.232;-1.304;2022-12-05T17:49:13;6.85;;;3.42;;
73816;SDS011;62146;53.232;-1.304;2022-12-05T17:51:41;11.57;;;4.60;;
73816;SDS011;62146;53.232;-1.304;2022-12-05T17:54:29;9.00;;;4.28;;
73816;SDS011;62146;53.232;-1.304;2022-12-05T17:56:55;8.63;;;4.30;;
73816;SDS011;62146;53.232;-1.304;2022-12-05T17:59:22;10.00;;;4.80;;
73816;SDS011;62146;53.232;-1.304;2022-12-05T18:01:48;10.35;;;5.05;;